createdAt,value
2022-08-14T00:02:01.626Z,16.60
2022-08-14T00:04:34.209Z,16.70
2022-08-14T00:07:06.809Z,16.60
2022-08-14T00:09:34.184Z,16.50
2022-08-14T00:12:24.089Z,16.50
2022-08-14T00:14:54.852Z,16.50
2022-08-14T00:17:22.826Z,16.50
2022-08-14T00:19:49.938Z,16.40
2022-08-14T00:22:22.083Z,16.10
2022-08-14T00:25:08.160Z,15.90
2022-08-14T00:27:37.583Z,16.00
2022-08-14T00:30:11.134Z,16.10
2022-08-14T00:32:52.939Z,16.20
2022-08-14T00:35:35.746Z,16.20
2022-08-14T00:38:10.763Z,15.90
2022-08-14T00:40:38.117Z,15.90
2022-08-14T00:43:06.337Z,15.90
2022-08-14T00:45:33.325Z,16.00
2022-08-14T00:48:00.396Z,15.90
2022-08-14T00:50:30.371Z,15.80
2022-08-14T00:53:00.130Z,15.90
2022-08-14T00:55:28.610Z,15.80
2022-08-14T00:58:17.632Z,15.80
2022-08-14T01:00:47.515Z,15.60
2022-08-14T01:03:22.001Z,15.60
2022-08-14T01:05:52.471Z,15.60
2022-08-14T01:08:52.137Z,15.70
2022-08-14T01:11:08.407Z,15.60
2022-08-14T01:13:42.888Z,15.60
2022-08-14T01:16:15.338Z,15.50
2022-08-14T01:19:02.449Z,15.60
2022-08-14T01:21:46.822Z,15.50
2022-08-14T01:24:24.843Z,15.60
2022-08-14T01:27:01.201Z,15.50
2022-08-14T01:29:58.538Z,15.30
2022-08-14T01:32:23.633Z,15.20
2022-08-14T01:35:20.627Z,15.10
2022-08-14T01:37:56.555Z,15.20
2022-08-14T01:40:36.971Z,15.20
2022-08-14T01:43:18.275Z,15.30
2022-08-14T01:45:57.719Z,15.30
2022-08-14T01:48:34.038Z,15.30
2022-08-14T01:51:19.045Z,15.40
2022-08-14T01:53:54.810Z,15.40
2022-08-14T01:56:37.409Z,15.20
2022-08-14T01:59:38.004Z,15.10
2022-08-14T02:02:14.757Z,15.00
2022-08-14T02:04:57.088Z,15.10
2022-08-14T02:07:34.446Z,15.10
2022-08-14T02:10:15.995Z,15.10
2022-08-14T02:12:54.093Z,15.00
2022-08-14T02:15:24.764Z,14.80
2022-08-14T02:17:51.539Z,14.70
2022-08-14T02:20:23.882Z,14.70
2022-08-14T02:22:52.813Z,14.80
2022-08-14T02:25:23.503Z,14.90
2022-08-14T02:28:24.232Z,15.00
2022-08-14T02:30:43.146Z,15.10
2022-08-14T02:33:10.764Z,15.10
2022-08-14T02:35:41.381Z,15.00
2022-08-14T02:38:11.937Z,14.90
2022-08-14T02:40:57.762Z,14.70
2022-08-14T02:43:24.766Z,14.70
2022-08-14T02:46:04.033Z,14.70
2022-08-14T02:49:05.325Z,14.80
2022-08-14T02:51:23.484Z,14.90
2022-08-14T02:53:51.997Z,14.90
2022-08-14T02:56:30.257Z,14.70
2022-08-14T02:59:09.423Z,14.60
2022-08-14T03:01:50.459Z,14.70
2022-08-14T03:04:20.708Z,14.70
2022-08-14T03:07:06.464Z,14.70
2022-08-14T03:10:24.753Z,14.60
2022-08-14T03:12:32.227Z,14.50
2022-08-14T03:15:03.014Z,14.40
2022-08-14T03:17:31.815Z,14.40
2022-08-14T03:20:11.283Z,14.50
2022-08-14T03:22:42.212Z,14.50
2022-08-14T03:25:11.912Z,14.50
2022-08-14T03:27:48.510Z,14.60
2022-08-14T03:30:24.938Z,14.50
2022-08-14T03:33:08.045Z,14.40
2022-08-14T03:35:39.945Z,14.30
2022-08-14T03:39:14.095Z,14.30
2022-08-14T03:40:56.826Z,14.20
2022-08-14T03:43:28.391Z,14.10
2022-08-14T03:46:00.354Z,14.20
2022-08-14T03:48:31.112Z,14.30
2022-08-14T03:50:59.618Z,14.30
2022-08-14T03:53:28.319Z,14.40
2022-08-14T03:55:58.992Z,14.40
2022-08-14T03:58:34.947Z,14.30
2022-08-14T04:01:04.190Z,14.10
2022-08-14T04:03:37.214Z,13.80
2022-08-14T04:06:05.237Z,13.70
2022-08-14T04:08:36.510Z,13.90
2022-08-14T04:11:10.111Z,14.10
2022-08-14T04:13:41.817Z,14.10
2022-08-14T04:16:14.047Z,14.10
2022-08-14T04:18:46.467Z,14.00
2022-08-14T04:21:16.299Z,14.10
2022-08-14T04:23:45.566Z,14.10
2022-08-14T04:26:41.929Z,14.00
2022-08-14T04:29:14.508Z,14.00
2022-08-14T04:33:00.249Z,14.00
2022-08-14T04:34:29.810Z,14.20
2022-08-14T04:37:22.187Z,14.30
2022-08-14T04:40:11.602Z,14.30
2022-08-14T04:42:57.726Z,14.20
2022-08-14T04:45:25.975Z,13.90
2022-08-14T04:48:39.646Z,13.80
2022-08-14T04:51:04.357Z,13.80
2022-08-14T04:53:35.341Z,13.60
2022-08-14T04:56:05.895Z,13.60
2022-08-14T04:58:37.767Z,13.60
2022-08-14T05:01:12.721Z,13.70
2022-08-14T05:03:44.809Z,14.00
2022-08-14T05:06:38.558Z,14.20
2022-08-14T05:09:00.319Z,14.20
2022-08-14T05:11:27.593Z,14.20
2022-08-14T05:14:42.787Z,14.00
2022-08-14T05:16:44.137Z,14.00
2022-08-14T05:19:17.801Z,14.00
2022-08-14T05:21:59.491Z,13.90
2022-08-14T05:24:29.218Z,14.00
2022-08-14T05:26:56.250Z,14.20
2022-08-14T05:29:23.929Z,14.40
2022-08-14T05:31:56.017Z,14.50
2022-08-14T05:34:32.014Z,14.50
2022-08-14T05:37:02.345Z,14.60
2022-08-14T05:39:31.290Z,14.60
2022-08-14T05:41:58.916Z,14.70
2022-08-14T05:44:30.175Z,14.80
2022-08-14T05:46:58.568Z,15.00
2022-08-14T05:49:33.421Z,15.10
2022-08-14T05:52:02.294Z,15.10
2022-08-14T05:54:35.650Z,14.90
2022-08-14T05:57:04.721Z,15.10
2022-08-14T05:59:38.935Z,15.20
2022-08-14T06:02:11.377Z,15.50
2022-08-14T06:04:38.929Z,15.90
2022-08-14T06:07:06.546Z,16.40
2022-08-14T06:09:35.541Z,16.90
2022-08-14T06:12:10.659Z,17.20
2022-08-14T06:14:39.271Z,17.30
2022-08-14T06:17:06.642Z,17.50
2022-08-14T06:19:33.405Z,17.60
2022-08-14T06:22:00.161Z,17.60
2022-08-14T06:24:30.682Z,17.60
2022-08-14T06:27:06.148Z,17.70
2022-08-14T06:29:38.028Z,17.70
2022-08-14T06:32:37.645Z,17.70
2022-08-14T06:35:03.352Z,17.70
2022-08-14T06:37:57.491Z,17.70
2022-08-14T06:40:30.250Z,17.70
2022-08-14T06:43:06.979Z,17.80
2022-08-14T06:45:36.204Z,18.00
2022-08-14T06:48:05.949Z,18.10
2022-08-14T06:50:33.633Z,18.30
2022-08-14T06:53:01.037Z,18.40
2022-08-14T06:55:29.394Z,18.40
2022-08-14T06:57:57.753Z,18.20
2022-08-14T07:00:31.100Z,18.50
2022-08-14T07:03:19.201Z,18.80
2022-08-14T07:05:55.785Z,19.10
2022-08-14T07:08:31.360Z,19.10
2022-08-14T07:11:01.108Z,19.10
2022-08-14T07:13:28.449Z,19.30
2022-08-14T07:15:58.440Z,19.60
2022-08-14T07:18:33.846Z,19.80
2022-08-14T07:21:02.398Z,20.00
2022-08-14T07:23:31.139Z,20.30
2022-08-14T07:25:59.839Z,20.40
2022-08-14T07:28:33.066Z,20.50
2022-08-14T07:31:04.931Z,20.70
2022-08-14T07:33:49.925Z,20.80
2022-08-14T07:36:30.357Z,21.00
2022-08-14T07:39:02.990Z,21.00
2022-08-14T07:41:33.559Z,21.10
2022-08-14T07:44:28.887Z,21.20
2022-08-14T07:46:49.672Z,21.30
2022-08-14T07:49:17.889Z,21.40
2022-08-14T07:51:45.511Z,21.60
2022-08-14T07:54:12.672Z,21.70
2022-08-14T07:56:48.938Z,21.70
2022-08-14T07:59:41.348Z,21.80
2022-08-14T08:02:18.061Z,21.90
2022-08-14T08:04:59.354Z,22.00
2022-08-14T08:07:29.829Z,22.10
2022-08-14T08:09:59.693Z,22.30
2022-08-14T08:12:38.685Z,22.30
2022-08-14T08:15:07.775Z,22.40
2022-08-14T08:17:53.321Z,22.40
2022-08-14T08:20:27.434Z,22.60
2022-08-14T08:23:00.464Z,22.90
2022-08-14T08:25:40.015Z,23.10
2022-08-14T08:28:22.409Z,22.80
2022-08-14T08:30:59.986Z,22.90
2022-08-14T08:33:37.248Z,23.00
2022-08-14T08:36:07.995Z,23.20
2022-08-14T08:39:17.001Z,23.20
2022-08-14T08:41:22.964Z,23.20
2022-08-14T08:43:51.185Z,23.30
2022-08-14T08:46:23.898Z,23.40
2022-08-14T08:51:37.531Z,23.40
2022-08-14T08:54:14.991Z,23.50
2022-08-14T08:56:47.283Z,23.60
2022-08-14T08:59:27.038Z,23.80
2022-08-14T09:02:01.693Z,23.90
2022-08-14T09:04:45.335Z,24.10
2022-08-14T09:07:25.494Z,24.20
2022-08-14T09:09:59.432Z,24.20
2022-08-14T09:12:29.873Z,24.30
2022-08-14T09:15:12.014Z,24.20
2022-08-14T09:17:42.070Z,24.20
2022-08-14T09:20:11.750Z,24.20
2022-08-14T09:22:47.802Z,24.20
2022-08-14T09:25:19.626Z,24.30
2022-08-14T09:27:49.106Z,24.30
2022-08-14T09:30:32.872Z,24.60
2022-08-14T09:33:11.215Z,24.70
2022-08-14T09:36:13.678Z,25.00
2022-08-14T09:38:40.780Z,25.00
2022-08-14T09:42:20.027Z,24.90
2022-08-14T09:44:45.788Z,25.10
2022-08-14T09:47:15.066Z,25.10
2022-08-14T09:49:42.771Z,25.30
2022-08-14T09:52:33.534Z,25.50
2022-08-14T09:55:01.443Z,25.60
2022-08-14T09:57:31.300Z,25.80
2022-08-14T10:00:09.858Z,26.00
2022-08-14T10:03:03.583Z,26.10
2022-08-14T10:05:34.956Z,25.80
2022-08-14T10:08:25.584Z,25.70
2022-08-14T10:11:02.349Z,26.00
2022-08-14T10:13:43.259Z,25.90
2022-08-14T10:16:27.391Z,25.60
2022-08-14T10:19:13.316Z,26.00
2022-08-14T10:23:12.842Z,26.40
2022-08-14T10:24:50.776Z,26.50
2022-08-14T10:27:23.341Z,26.80
2022-08-14T10:29:52.356Z,27.30
2022-08-14T10:32:29.169Z,27.60
2022-08-14T10:35:14.788Z,27.60
2022-08-14T10:37:50.371Z,27.70
2022-08-14T10:40:37.530Z,28.10
2022-08-14T10:43:26.046Z,28.30
2022-08-14T10:45:59.703Z,28.60
2022-08-14T10:49:04.469Z,28.60
2022-08-14T10:51:39.911Z,28.70
2022-08-14T10:54:17.088Z,28.70
2022-08-14T10:56:59.010Z,28.80
2022-08-14T10:59:30.891Z,28.40
2022-08-14T11:02:02.387Z,28.30
2022-08-14T11:04:30.846Z,28.20
2022-08-14T11:06:58.477Z,28.60
2022-08-14T11:09:26.401Z,28.80
2022-08-14T11:12:34.750Z,28.50
2022-08-14T11:15:10.973Z,28.60
2022-08-14T11:17:38.663Z,28.60
2022-08-14T11:20:14.079Z,28.20
2022-08-14T11:22:55.888Z,27.80
2022-08-14T11:25:43.204Z,28.40
2022-08-14T11:28:14.500Z,28.80
2022-08-14T11:30:53.314Z,29.00
2022-08-14T11:33:25.059Z,29.30
2022-08-14T11:35:51.841Z,29.50
2022-08-14T11:38:21.636Z,29.80
2022-08-14T11:40:48.531Z,29.90
2022-08-14T11:43:16.346Z,30.00
2022-08-14T11:45:48.613Z,30.00
2022-08-14T11:49:03.104Z,30.00
2022-08-14T11:51:23.866Z,30.10
2022-08-14T11:54:19.878Z,30.20
2022-08-14T11:56:51.282Z,30.20
2022-08-14T11:59:19.985Z,30.30
2022-08-14T12:01:54.903Z,30.00
2022-08-14T12:04:33.022Z,30.30
2022-08-14T12:07:01.466Z,30.50
2022-08-14T12:09:29.739Z,30.70
2022-08-14T12:11:56.717Z,30.50
2022-08-14T12:14:30.670Z,30.30
2022-08-14T12:17:09.454Z,30.00
2022-08-14T12:19:53.913Z,30.10
2022-08-14T12:22:37.614Z,30.00
2022-08-14T12:25:11.418Z,30.00
2022-08-14T12:27:53.587Z,30.40
2022-08-14T12:30:35.878Z,30.60
2022-08-14T12:33:08.546Z,30.70
2022-08-14T12:35:42.798Z,30.70
2022-08-14T12:38:21.074Z,30.60
2022-08-14T12:40:50.694Z,30.50
2022-08-14T12:43:19.688Z,30.50
2022-08-14T12:45:55.017Z,30.70
2022-08-14T12:48:32.042Z,31.20
2022-08-14T12:50:59.712Z,31.50
2022-08-14T12:53:38.457Z,31.70
2022-08-14T12:56:21.898Z,31.70
2022-08-14T12:58:57.322Z,31.30
2022-08-14T13:01:30.946Z,31.10
2022-08-14T13:04:05.104Z,31.20
2022-08-14T13:06:33.817Z,31.40
2022-08-14T13:09:01.090Z,31.60
2022-08-14T13:11:41.410Z,31.90
2022-08-14T13:14:17.530Z,31.40
2022-08-14T13:16:50.486Z,31.00
2022-08-14T13:19:18.423Z,30.60
2022-08-14T13:22:05.298Z,30.30
2022-08-14T13:24:39.569Z,30.30
2022-08-14T13:27:10.002Z,29.80
2022-08-14T13:29:46.702Z,29.30
2022-08-14T13:32:14.439Z,29.20
2022-08-14T13:34:45.380Z,29.10
2022-08-14T13:37:15.250Z,29.10
2022-08-14T13:39:56.833Z,29.10
2022-08-14T13:42:30.897Z,29.10
2022-08-14T13:45:01.477Z,29.10
2022-08-14T13:47:30.528Z,29.20
2022-08-14T13:50:02.621Z,29.40
2022-08-14T13:52:52.766Z,29.40
2022-08-14T13:55:27.995Z,29.20
2022-08-14T13:58:04.519Z,29.20
2022-08-14T14:00:35.730Z,29.00
2022-08-14T14:03:20.664Z,29.00
2022-08-14T14:05:54.340Z,29.00
2022-08-14T14:08:45.713Z,29.00
2022-08-14T14:11:10.417Z,29.30
2022-08-14T14:13:44.760Z,29.60
2022-08-14T14:16:15.457Z,29.60
2022-08-14T14:19:08.918Z,29.50
2022-08-14T14:21:38.071Z,29.20
2022-08-14T14:24:08.068Z,28.80
2022-08-14T14:26:46.209Z,28.40
2022-08-14T14:29:14.446Z,28.40
2022-08-14T14:31:45.917Z,28.30
2022-08-14T14:34:30.205Z,28.20
2022-08-14T14:37:02.718Z,28.30
2022-08-14T14:39:31.453Z,28.40
2022-08-14T14:42:06.104Z,28.60
2022-08-14T14:44:40.234Z,28.90
2022-08-14T14:47:10.103Z,28.90
2022-08-14T14:49:50.989Z,29.00
2022-08-14T14:52:27.656Z,29.10
2022-08-14T14:54:59.071Z,29.00
2022-08-14T14:57:34.618Z,29.10
2022-08-14T15:00:12.956Z,29.40
2022-08-14T15:02:43.370Z,30.00
2022-08-14T15:05:13.105Z,30.10
2022-08-14T15:07:41.417Z,30.00
2022-08-14T15:10:27.843Z,30.00
2022-08-14T15:13:04.263Z,30.40
2022-08-14T15:15:33.663Z,30.70
2022-08-14T15:18:14.803Z,30.30
2022-08-14T15:20:55.067Z,29.90
2022-08-14T15:23:23.458Z,29.70
2022-08-14T15:25:52.429Z,29.30
2022-08-14T15:28:21.474Z,28.70
2022-08-14T15:30:57.816Z,28.50
2022-08-14T15:34:13.292Z,28.40
2022-08-14T15:36:31.388Z,28.20
2022-08-14T15:38:59.117Z,27.90
2022-08-14T15:41:26.814Z,27.70
2022-08-14T15:44:00.976Z,27.50
2022-08-14T15:46:43.345Z,27.30
2022-08-14T15:49:12.598Z,27.20
2022-08-14T15:51:42.084Z,27.30
2022-08-14T15:54:11.413Z,27.10
2022-08-14T15:56:42.886Z,27.10
2022-08-14T15:59:10.392Z,27.10
2022-08-14T16:01:53.848Z,27.10
2022-08-14T16:04:22.757Z,27.00
2022-08-14T16:06:54.564Z,26.80
2022-08-14T16:09:22.885Z,26.80
2022-08-14T16:11:50.776Z,26.90
2022-08-14T16:14:21.506Z,26.90
2022-08-14T16:17:00.487Z,27.00
2022-08-14T16:19:31.528Z,27.10
2022-08-14T16:22:58.179Z,27.00
2022-08-14T16:25:02.041Z,27.00
2022-08-14T16:27:37.259Z,27.00
2022-08-14T16:30:12.327Z,27.00
2022-08-14T16:32:56.938Z,27.00
2022-08-14T16:38:19.522Z,26.90
2022-08-14T16:40:25.408Z,26.90
2022-08-14T16:41:22.841Z,26.70
2022-08-14T16:43:59.166Z,26.60
2022-08-14T16:46:28.010Z,26.40
2022-08-14T16:48:58.373Z,26.40
2022-08-14T16:51:28.083Z,26.30
2022-08-14T16:53:56.563Z,26.20
2022-08-14T16:56:28.046Z,26.00
2022-08-14T16:59:52.825Z,25.80
2022-08-14T17:02:44.091Z,25.80
2022-08-14T17:05:17.138Z,25.60
2022-08-14T17:08:03.795Z,25.50
2022-08-14T17:10:50.444Z,25.50
2022-08-14T17:13:59.591Z,25.40
2022-08-14T17:16:25.465Z,25.30
2022-08-14T17:19:00.910Z,25.10
2022-08-14T17:21:31.600Z,24.90
2022-08-14T17:24:57.433Z,24.80
2022-08-14T17:26:55.528Z,24.60
2022-08-14T17:29:29.243Z,24.50
2022-08-14T17:32:06.284Z,24.50
2022-08-14T17:34:52.674Z,24.50
2022-08-14T17:37:30.488Z,24.40
2022-08-14T17:40:16.442Z,24.50
2022-08-14T17:42:51.036Z,24.20
2022-08-14T17:45:47.028Z,24.20
2022-08-14T17:49:14.441Z,24.20
2022-08-14T17:51:23.219Z,24.10
2022-08-14T17:53:53.562Z,24.00
2022-08-14T17:56:30.837Z,23.90
2022-08-14T17:59:07.005Z,23.80
2022-08-14T18:01:40.678Z,23.80
2022-08-14T18:04:24.938Z,23.80
2022-08-14T18:07:08.645Z,23.80
2022-08-14T18:09:56.910Z,23.80
2022-08-14T18:12:32.921Z,23.70
2022-08-14T18:15:16.818Z,23.60
2022-08-14T18:17:52.612Z,23.60
2022-08-14T18:21:42.152Z,23.50
2022-08-14T18:23:12.901Z,23.50
2022-08-14T18:25:50.383Z,23.40
2022-08-14T18:28:48.564Z,23.40
2022-08-14T18:31:23.214Z,23.40
2022-08-14T18:34:32.322Z,23.40
2022-08-14T18:37:13.898Z,23.30
2022-08-14T18:40:03.420Z,23.30
2022-08-14T18:42:35.049Z,23.20
2022-08-14T18:45:02.094Z,23.10
2022-08-14T18:48:06.507Z,23.20
2022-08-14T18:50:32.210Z,23.10
2022-08-14T18:53:10.910Z,23.10
2022-08-14T18:55:47.528Z,23.00
2022-08-14T18:58:28.019Z,23.00
2022-08-14T19:00:59.925Z,23.00
2022-08-14T19:03:45.051Z,23.00
2022-08-14T19:06:16.466Z,23.00
2022-08-14T19:08:49.029Z,22.90
2022-08-14T19:11:50.534Z,22.80
2022-08-14T19:14:45.555Z,22.50
2022-08-14T19:17:42.222Z,22.30
2022-08-14T19:20:10.294Z,22.30
2022-08-14T19:22:42.963Z,22.30
2022-08-14T19:25:13.722Z,22.20
2022-08-14T19:27:46.021Z,22.10
2022-08-14T19:30:20.546Z,22.10
2022-08-14T19:32:52.434Z,22.00
2022-08-14T19:35:24.800Z,22.10
2022-08-14T19:38:10.333Z,21.90
2022-08-14T19:40:58.474Z,21.80
2022-08-14T19:43:55.998Z,21.50
2022-08-14T19:46:39.582Z,20.90
2022-08-14T19:49:23.183Z,20.60
2022-08-14T19:52:04.515Z,19.90
2022-08-14T19:54:44.480Z,19.40
2022-08-14T19:57:20.433Z,19.10
2022-08-14T19:59:57.261Z,18.80
2022-08-14T20:02:30.136Z,18.40
2022-08-14T20:05:03.732Z,18.30
2022-08-14T20:07:59.386Z,18.10
2022-08-14T20:11:03.833Z,18.10
2022-08-14T20:13:14.567Z,18.10
2022-08-14T20:15:51.111Z,18.00
2022-08-14T20:18:49.972Z,18.10
2022-08-14T20:21:13.624Z,18.20
2022-08-14T20:23:41.014Z,18.20
2022-08-14T20:26:31.354Z,18.20
2022-08-14T20:29:05.376Z,18.20
2022-08-14T20:31:36.637Z,18.20
2022-08-14T20:34:18.984Z,18.20
2022-08-14T20:37:09.826Z,18.20
2022-08-14T20:39:54.591Z,18.30
2022-08-14T20:42:43.477Z,18.40
2022-08-14T20:45:23.861Z,18.40
2022-08-14T20:48:07.351Z,18.30
2022-08-14T20:50:45.026Z,18.40
2022-08-14T20:53:32.409Z,18.40
2022-08-14T20:56:04.625Z,18.50
2022-08-14T20:58:48.075Z,18.40
2022-08-14T21:01:14.902Z,18.30
2022-08-14T21:03:57.098Z,18.20
2022-08-14T21:07:22.952Z,18.20
2022-08-14T21:09:43.940Z,18.20
2022-08-14T21:12:34.698Z,18.30
2022-08-14T21:15:00.846Z,18.40
2022-08-14T21:17:29.550Z,18.50
2022-08-14T21:19:56.741Z,18.50
2022-08-14T21:22:24.931Z,18.50
2022-08-14T21:25:02.217Z,18.40
2022-08-14T21:27:45.985Z,18.30
2022-08-14T21:30:20.973Z,18.20
2022-08-14T21:32:57.861Z,18.40
2022-08-14T21:35:26.006Z,18.50
2022-08-14T21:37:53.691Z,18.50
2022-08-14T21:40:41.733Z,18.60
2022-08-14T21:43:14.855Z,18.60
2022-08-14T21:45:53.472Z,18.60
2022-08-14T21:48:29.743Z,18.50
2022-08-14T21:51:52.450Z,18.20
2022-08-14T21:53:54.125Z,18.10
2022-08-14T21:56:39.621Z,18.10
2022-08-14T21:59:10.536Z,18.30
2022-08-14T22:02:00.460Z,18.40
2022-08-14T22:04:33.173Z,18.30
2022-08-14T22:07:16.909Z,18.00
2022-08-14T22:09:44.611Z,17.70
2022-08-14T22:12:11.545Z,17.80
2022-08-14T22:14:58.473Z,18.00
2022-08-14T22:17:26.092Z,18.00
2022-08-14T22:19:59.624Z,17.80
2022-08-14T22:22:26.736Z,17.70
2022-08-14T22:24:59.971Z,17.70
2022-08-14T22:27:32.476Z,17.90
2022-08-14T22:30:01.287Z,18.00
2022-08-14T22:32:35.099Z,18.10
2022-08-14T22:35:04.126Z,18.10
2022-08-14T22:37:39.634Z,18.10
2022-08-14T22:40:46.237Z,17.90
2022-08-14T22:43:08.334Z,17.90
2022-08-14T22:45:37.785Z,18.00
2022-08-14T22:48:11.190Z,18.00
2022-08-14T22:50:53.132Z,18.10
2022-08-14T22:53:21.802Z,18.10
2022-08-14T22:55:51.936Z,18.10
2022-08-14T22:58:31.425Z,18.10
2022-08-14T23:01:04.666Z,18.10
2022-08-14T23:03:36.149Z,18.00
2022-08-14T23:06:04.324Z,18.00
2022-08-14T23:09:01.505Z,18.00
2022-08-14T23:11:39.210Z,18.00
2022-08-14T23:14:12.250Z,18.00
2022-08-14T23:16:39.595Z,18.00
2022-08-14T23:19:11.584Z,17.80
2022-08-14T23:21:46.365Z,17.70
2022-08-14T23:24:14.086Z,17.80
2022-08-14T23:26:47.762Z,17.80
2022-08-14T23:29:21.103Z,17.90
2022-08-14T23:31:49.108Z,17.90
2022-08-14T23:34:20.630Z,18.00
2022-08-14T23:36:52.957Z,18.00
2022-08-14T23:39:30.246Z,18.00
2022-08-14T23:42:04.449Z,17.90
2022-08-14T23:44:35.118Z,17.80
2022-08-14T23:47:05.518Z,17.90
2022-08-14T23:49:56.972Z,17.80
2022-08-14T23:52:51.095Z,17.90
2022-08-14T23:55:10.976Z,17.90
2022-08-14T23:57:43.903Z,17.90
